Time;durP1;ratioP1;P1;durP2;ratioP2;P2;SDS_P1;SDS_P2;PMS_P1;PMS_P2;Temp;Humidity;BMP_temperature;BMP_pressure;BME280_temperature;BME280_humidity;BME280_pressure;Samples;Min_cycle;Max_cycle;Signal;HPM_P1;HPM_P2
2023/04/22 00:00:21;;;;;;;16.98;8.10;;;;;;;;;;6164705;23;20407;-93
2023/04/22 00:02:47;;;;;;;12.68;8.23;;;;;;;;;;6164372;23;20084;-92
2023/04/22 00:05:29;;;;;;;22.05;10.00;;;;;;;;;;6187959;23;20328;-92
2023/04/22 00:07:55;;;;;;;18.30;8.32;;;;;;;;;;6163962;23;20059;-91
2023/04/22 00:10:39;;;;;;;14.38;8.18;;;;;;;;;;6189659;23;20418;-93
2023/04/22 00:13:08;;;;;;;16.08;9.23;;;;;;;;;;6190969;23;20247;-92
2023/04/22 00:15:38;;;;;;;18.50;9.65;;;;;;;;;;6190657;23;20001;-94
2023/04/22 00:18:17;;;;;;;16.35;10.88;;;;;;;;;;6191240;23;20013;-94
2023/04/22 00:21:10;;;;;;;14.57;9.25;;;;;;;;;;6166023;23;20489;-93
2023/04/22 00:23:44;;;;;;;15.18;9.27;;;;;;;;;;6112955;23;20009;-93
2023/04/22 00:26:16;;;;;;;17.70;9.93;;;;;;;;;;6191175;23;20016;-93
2023/04/22 00:28:42;;;;;;;14.88;9.77;;;;;;;;;;6164758;23;20017;-93
2023/04/22 00:31:08;;;;;;;18.20;10.60;;;;;;;;;;6163561;23;20040;-93
2023/04/22 00:33:45;;;;;;;17.45;10.50;;;;;;;;;;6164203;23;20088;-94
2023/04/22 00:36:22;;;;;;;13.73;9.82;;;;;;;;;;6191173;23;20004;-94
2023/04/22 00:38:54;;;;;;;;;;;;;;;;;;6167124;23;20067;-94
2023/04/22 00:41:21;;;;;;;15.13;9.95;;;;;;;;;;6164965;23;19904;-92
2023/04/22 00:43:52;;;;;;;20.23;11.30;;;;;;;;;;6189333;23;20005;-93
2023/04/22 00:46:20;;;;;;;20.67;12.27;;;;;;;;;;6165082;23;20013;-93
2023/04/22 00:48:55;;;;;;;19.23;10.95;;;;;;;;;;6165962;23;20017;-93
2023/04/22 00:51:25;;;;;;;18.70;10.75;;;;;;;;;;6179825;22;20016;-93
2023/04/22 00:54:02;;;;;;;16.48;10.45;;;;;;;;;;6195373;23;20023;-93
2023/04/22 00:56:29;;;;;;;21.88;10.50;;;;;;;;;;6192493;23;20019;-92
2023/04/22 00:58:56;;;;;;;18.35;10.55;;;;;;;;;;6219225;23;20028;-93
2023/04/22 01:01:23;;;;;;;22.05;11.00;;;;;;;;;;6192829;23;20012;-93
2023/04/22 01:04:13;;;;;;;18.25;11.10;;;;;;;;;;6219308;23;20005;-92
2023/04/22 01:06:40;;;;;;;17.95;10.60;;;;;;;;;;6215999;23;20331;-91
2023/04/22 01:09:06;;;;;;;17.10;10.90;;;;;;;;;;6218897;23;20007;-92
2023/04/22 01:11:35;;;;;;;18.42;10.68;;;;;;;;;;6218098;23;20008;-95
2023/04/22 01:14:02;;;;;;;18.80;10.85;;;;;;;;;;6221275;23;20025;-94
2023/04/22 01:16:47;;;;;;;18.38;10.88;;;;;;;;;;6196058;23;20016;-94
2023/04/22 01:19:26;;;;;;;20.33;10.88;;;;;;;;;;6195107;23;20009;-93
2023/04/22 01:21:53;;;;;;;19.10;10.90;;;;;;;;;;6221319;23;20012;-94
2023/04/22 01:24:23;;;;;;;22.77;11.95;;;;;;;;;;6197938;23;20024;-92
2023/04/22 01:26:51;;;;;;;24.45;13.98;;;;;;;;;;6201497;23;20057;-94
2023/04/22 01:29:17;;;;;;;18.17;11.07;;;;;;;;;;6201705;23;20012;-94
2023/04/22 01:31:44;;;;;;;19.15;11.25;;;;;;;;;;6227257;23;20012;-94
2023/04/22 01:34:11;;;;;;;20.45;11.20;;;;;;;;;;6224574;23;20343;-93
2023/04/22 01:36:37;;;;;;;18.63;11.10;;;;;;;;;;6197658;23;20144;-93
2023/04/22 01:39:07;;;;;;;21.08;11.23;;;;;;;;;;6224584;23;20015;-94
2023/04/22 01:41:33;;;;;;;17.35;11.52;;;;;;;;;;6197114;23;20038;-93
2023/04/22 01:44:18;;;;;;;22.15;11.57;;;;;;;;;;6196193;23;20012;-93
2023/04/22 01:46:50;;;;;;;22.17;11.40;;;;;;;;;;6193922;23;20024;-93
2023/04/22 01:49:25;;;;;;;22.40;11.77;;;;;;;;;;6195088;23;20013;-93
2023/04/22 01:51:51;;;;;;;22.23;12.30;;;;;;;;;;6192657;23;20036;-91
2023/04/22 01:54:18;;;;;;;22.08;12.02;;;;;;;;;;6193980;23;20013;-93
2023/04/22 01:57:09;;;;;;;18.17;11.38;;;;;;;;;;6198943;23;20020;-95
2023/04/22 01:59:35;;;;;;;17.27;10.75;;;;;;;;;;6197128;23;20371;-93
2023/04/22 02:04:54;;;;;;;18.75;10.25;;;;;;;;;;6219162;23;20008;-95
2023/04/22 02:07:24;;;;;;;24.83;12.38;;;;;;;;;;6194987;23;20406;-93
2023/04/22 02:09:51;;;;;;;21.50;11.38;;;;;;;;;;6218312;23;20024;-93
2023/04/22 02:12:17;;;;;;;18.17;11.15;;;;;;;;;;6191183;23;20013;-92
2023/04/22 02:14:43;;;;;;;22.77;11.25;;;;;;;;;;6218994;23;20011;-91
2023/04/22 02:17:09;;;;;;;20.80;11.77;;;;;;;;;;6192749;23;20013;-92
2023/04/22 02:19:38;;;;;;;21.17;12.57;;;;;;;;;;6219108;23;20054;-92
2023/04/22 02:22:33;;;;;;;;;;;;;;;;;;;;;
2023/04/22 02:24:54;;;;;;;18.80;11.45;;;;;;;;;;6216195;23;20435;-94
2023/04/22 02:27:27;;;;;;;21.10;10.50;;;;;;;;;;6194309;23;20008;-94
2023/04/22 02:29:53;;;;;;;15.98;10.40;;;;;;;;;;6195882;23;20004;-94
2023/04/22 02:32:19;;;;;;;20.10;11.93;;;;;;;;;;6196720;23;20005;-94
2023/04/22 02:34:46;;;;;;;24.20;13.05;;;;;;;;;;6219188;23;20501;-94
2023/04/22 02:37:15;;;;;;;21.10;12.57;;;;;;;;;;6194994;23;20012;-94
2023/04/22 02:40:02;;;;;;;24.00;13.73;;;;;;;;;;6217762;23;20846;-93
2023/04/22 02:42:31;;;;;;;22.83;14.27;;;;;;;;;;6173408;23;20005;-92
2023/04/22 02:45:00;;;;;;;29.65;15.10;;;;;;;;;;6190776;23;20044;-94
2023/04/22 02:47:26;;;;;;;28.00;12.88;;;;;;;;;;6217429;23;20016;-92
2023/04/22 02:49:53;;;;;;;24.85;13.18;;;;;;;;;;6217747;23;20028;-93
2023/04/22 02:52:33;;;;;;;29.25;15.02;;;;;;;;;;6219901;22;20021;-92
2023/04/22 02:55:00;;;;;;;31.85;13.45;;;;;;;;;;6193435;23;20009;-93
2023/04/22 02:57:30;;;;;;;20.63;12.25;;;;;;;;;;6195589;23;20009;-94
2023/04/22 02:59:56;;;;;;;20.65;13.38;;;;;;;;;;6195634;23;20088;-93
2023/04/22 03:02:23;;;;;;;24.83;13.73;;;;;;;;;;6194464;23;20019;-95
2023/04/22 03:04:51;;;;;;;23.23;13.70;;;;;;;;;;6194655;23;20009;-94
2023/04/22 03:07:20;;;;;;;22.98;13.13;;;;;;;;;;6219016;23;20005;-93
2023/04/22 03:09:46;;;;;;;25.10;13.48;;;;;;;;;;6218584;23;20356;-92
2023/04/22 03:12:12;;;;;;;24.48;13.98;;;;;;;;;;6193434;23;20008;-92
2023/04/22 03:14:39;;;;;;;24.58;13.48;;;;;;;;;;6193246;23;20017;-91
2023/04/22 03:17:05;;;;;;;23.45;13.48;;;;;;;;;;6191333;23;20012;-92
2023/04/22 03:19:31;;;;;;;20.73;12.27;;;;;;;;;;6193654;23;20063;-94
2023/04/22 03:22:00;;;;;;;23.27;14.15;;;;;;;;;;6194534;23;20005;-93
2023/04/22 03:24:39;;;;;;;22.40;13.57;;;;;;;;;;6195604;23;20013;-90
2023/04/22 03:27:15;;;;;;;;;;;;;;;;;;;;;
2023/04/22 03:29:47;;;;;;;25.95;14.57;;;;;;;;;;6221957;23;20036;-91
2023/04/22 03:32:13;;;;;;;23.63;13.52;;;;;;;;;;6192930;23;20091;-93
2023/04/22 03:34:39;;;;;;;28.00;12.65;;;;;;;;;;6195401;23;20024;-91
2023/04/22 03:37:07;;;;;;;21.92;13.30;;;;;;;;;;6194906;23;20359;-92
2023/04/22 03:39:53;;;;;;;22.25;13.48;;;;;;;;;;6192659;23;20005;-92
2023/04/22 03:42:19;;;;;;;24.37;13.07;;;;;;;;;;6192166;23;20009;-92
2023/04/22 03:44:45;;;;;;;23.58;13.07;;;;;;;;;;6191623;23;20751;-92
2023/04/22 03:47:11;;;;;;;20.05;12.75;;;;;;;;;;6192694;23;20013;-91
2023/04/22 03:49:38;;;;;;;19.45;12.13;;;;;;;;;;6193163;23;20016;-92
2023/04/22 03:52:07;;;;;;;24.80;12.88;;;;;;;;;;6194972;23;20459;-93
2023/04/22 03:54:33;;;;;;;19.58;11.68;;;;;;;;;;6219572;23;20209;-93
2023/04/22 03:56:59;;;;;;;18.67;11.77;;;;;;;;;;6193596;23;20017;-93
2023/04/22 03:59:25;;;;;;;21.80;12.20;;;;;;;;;;6193657;23;20411;-91
2023/04/22 04:02:10;;;;;;;22.25;12.77;;;;;;;;;;6216730;23;20095;-91
2023/04/22 04:04:37;;;;;;;22.02;11.77;;;;;;;;;;6194761;23;20012;-91
2023/04/22 04:07:24;;;;;;;20.10;12.38;;;;;;;;;;6192886;23;20013;-93
2023/04/22 04:09:50;;;;;;;25.08;14.65;;;;;;;;;;6194307;23;20971;-92
2023/04/22 04:12:17;;;;;;;26.63;13.52;;;;;;;;;;6219460;23;20419;-92
2023/04/22 04:14:46;;;;;;;22.23;13.52;;;;;;;;;;6195602;23;20500;-94
2023/04/22 04:17:33;;;;;;;26.45;14.13;;;;;;;;;;6195761;23;20012;-93
2023/04/22 04:19:59;;;;;;;23.70;12.55;;;;;;;;;;6222459;23;20060;-94
2023/04/22 04:22:28;;;;;;;20.40;12.77;;;;;;;;;;6195770;23;20273;-94
2023/04/22 04:27:40;;;;;;;21.33;11.88;;;;;;;;;;6221495;23;20024;-92
2023/04/22 04:30:09;;;;;;;19.10;12.65;;;;;;;;;;6193538;23;20016;-93
2023/04/22 04:32:38;;;;;;;19.83;12.05;;;;;;;;;;6224219;23;20015;-95
2023/04/22 04:35:05;;;;;;;20.13;11.63;;;;;;;;;;6196030;23;20297;-92
2023/04/22 04:37:35;;;;;;;19.10;12.55;;;;;;;;;;6220819;23;20020;-93
2023/04/22 04:40:02;;;;;;;25.17;11.73;;;;;;;;;;6196273;23;20008;-93
2023/04/22 04:42:32;;;;;;;20.20;12.13;;;;;;;;;;6221788;23;20423;-95
2023/04/22 04:45:15;;;;;;;20.65;12.52;;;;;;;;;;6195297;23;20016;-93
2023/04/22 04:48:08;;;;;;;22.98;12.98;;;;;;;;;;6223929;23;20014;-93
2023/04/22 04:50:35;;;;;;;29.40;13.90;;;;;;;;;;6222805;23;20004;-95
2023/04/22 04:53:05;;;;;;;30.27;14.85;;;;;;;;;;6223488;22;20546;-95
2023/04/22 04:55:39;;;;;;;32.25;16.35;;;;;;;;;;6198021;23;20200;-93
2023/04/22 04:58:05;;;;;;;32.22;17.73;;;;;;;;;;6196297;23;20024;-93
2023/04/22 05:00:38;;;;;;;32.60;16.10;;;;;;;;;;6197266;23;20012;-93
2023/04/22 05:03:21;;;;;;;36.65;18.73;;;;;;;;;;6198249;23;20015;-92
2023/04/22 05:06:01;;;;;;;37.92;19.00;;;;;;;;;;6222281;23;20005;-94
2023/04/22 05:08:27;;;;;;;35.17;19.45;;;;;;;;;;6221899;23;20012;-91
2023/04/22 05:10:53;;;;;;;40.75;19.52;;;;;;;;;;6198237;23;20015;-94
2023/04/22 05:13:29;;;;;;;36.72;19.52;;;;;;;;;;6223279;23;20007;-94
2023/04/22 05:15:58;;;;;;;30.55;18.35;;;;;;;;;;6198262;23;20019;-94
2023/04/22 05:18:25;;;;;;;34.35;18.30;;;;;;;;;;6199051;23;20039;-93
2023/04/22 05:20:51;;;;;;;43.70;19.08;;;;;;;;;;6198917;23;20018;-93
2023/04/22 05:23:17;;;;;;;29.65;16.10;;;;;;;;;;6198556;23;20012;-94
2023/04/22 05:26:02;;;;;;;29.15;16.55;;;;;;;;;;6225832;23;20085;-94
2023/04/22 05:28:29;;;;;;;28.63;15.48;;;;;;;;;;6197909;23;20008;-93
2023/04/22 05:31:07;;;;;;;35.15;15.43;;;;;;;;;;6190023;23;20072;-94
2023/04/22 05:33:33;;;;;;;28.90;15.35;;;;;;;;;;6199295;23;20012;-94
2023/04/22 05:36:03;;;;;;;25.40;14.95;;;;;;;;;;6205317;23;20028;-94
2023/04/22 05:38:35;;;;;;;27.40;14.93;;;;;;;;;;6236754;23;20795;-93
2023/04/22 05:41:02;;;;;;;27.55;15.07;;;;;;;;;;6211584;23;20459;-91
2023/04/22 05:43:43;;;;;;;24.50;15.07;;;;;;;;;;6207574;23;20039;-92
2023/04/22 05:46:09;;;;;;;28.98;15.65;;;;;;;;;;6208323;23;20017;-93
2023/04/22 05:48:35;;;;;;;27.17;15.95;;;;;;;;;;6229970;23;20011;-91
2023/04/22 05:54:17;;;;;;;24.58;14.75;;;;;;;;;;6225236;23;20059;-93
2023/04/22 05:57:37;;;;;;;25.00;14.75;;;;;;;;;;6200035;23;20000;-94
2023/04/22 05:59:57;;;;;;;24.80;15.50;;;;;;;;;;6185733;23;20004;-93
2023/04/22 06:05:44;;;;;;;29.52;15.85;;;;;;;;;;6221776;23;20434;-92
2023/04/22 06:08:48;;;;;;;29.80;15.32;;;;;;;;;;6196996;23;20634;-92
2023/04/22 06:11:15;;;;;;;24.42;15.90;;;;;;;;;;6193623;23;20066;-92
2023/04/22 06:13:44;;;;;;;29.30;16.05;;;;;;;;;;6197558;23;20558;-94
2023/04/22 06:16:17;;;;;;;27.65;15.35;;;;;;;;;;6202922;23;20019;-92
2023/04/22 06:18:43;;;;;;;29.00;16.52;;;;;;;;;;6197963;23;20008;-92
2023/04/22 06:21:26;;;;;;;;;;;;;;;;;;;;;
2023/04/22 06:23:54;;;;;;;25.10;16.52;;;;;;;;;;6224342;23;20028;-94
2023/04/22 06:26:23;;;;;;;27.85;16.33;;;;;;;;;;6199709;23;20012;-94
2023/04/22 06:28:50;;;;;;;27.20;16.63;;;;;;;;;;6195696;23;20096;-94
2023/04/22 06:31:16;;;;;;;28.85;16.45;;;;;;;;;;6199468;23;20019;-94
2023/04/22 06:33:42;;;;;;;28.98;17.00;;;;;;;;;;6197772;23;20019;-93
2023/04/22 06:36:09;;;;;;;31.20;18.70;;;;;;;;;;6221674;23;20027;-91
2023/04/22 06:39:14;;;;;;;24.90;15.85;;;;;;;;;;6223675;23;20005;-92
2023/04/22 06:41:43;;;;;;;26.63;16.75;;;;;;;;;;6221919;23;20004;-91
2023/04/22 06:44:09;;;;;;;36.33;17.27;;;;;;;;;;6191728;23;20495;-91
2023/04/22 06:46:35;;;;;;;26.80;16.52;;;;;;;;;;6189848;23;20256;-93
2023/04/22 06:49:02;;;;;;;28.92;17.17;;;;;;;;;;6215162;23;20070;-91
2023/04/22 06:52:03;;;;;;;31.70;17.55;;;;;;;;;;6195415;22;20020;-93
2023/04/22 06:54:28;;;;;;;29.65;15.57;;;;;;;;;;6224132;23;20013;-93
2023/04/22 06:56:54;;;;;;;24.67;15.75;;;;;;;;;;6193739;23;20015;-93
2023/04/22 06:59:35;;;;;;;26.65;15.30;;;;;;;;;;6200442;23;20239;-93
2023/04/22 07:02:04;;;;;;;22.95;14.88;;;;;;;;;;6194954;23;20089;-94
2023/04/22 07:04:34;;;;;;;22.55;15.60;;;;;;;;;;6228345;23;20008;-93
2023/04/22 07:07:11;;;;;;;27.02;15.27;;;;;;;;;;6195707;23;20113;-93
2023/04/22 07:09:37;;;;;;;23.52;14.88;;;;;;;;;;6198040;23;20016;-92
2023/04/22 07:12:03;;;;;;;24.00;15.15;;;;;;;;;;6195736;23;20442;-93
2023/04/22 07:14:29;;;;;;;24.23;14.82;;;;;;;;;;6199549;23;20062;-93
2023/04/22 07:17:18;;;;;;;21.65;13.20;;;;;;;;;;6202937;23;20017;-91
2023/04/22 07:19:44;;;;;;;24.48;13.63;;;;;;;;;;6193717;23;20508;-93
2023/04/22 07:22:11;;;;;;;19.60;13.23;;;;;;;;;;6170763;23;20059;-93
2023/04/22 07:24:58;;;;;;;19.60;13.07;;;;;;;;;;6165033;23;20001;-92
2023/04/22 07:27:37;;;;;;;22.10;13.40;;;;;;;;;;6166449;23;20052;-94
2023/04/22 07:30:39;;;;;;;20.25;12.90;;;;;;;;;;6167299;23;20009;-94
2023/04/22 07:36:04;;;;;;;23.48;11.95;;;;;;;;;;6179140;23;20573;-92
2023/04/22 07:39:16;;;;;;;15.50;10.57;;;;;;;;;;6168058;23;20009;-92
2023/04/22 07:41:42;;;;;;;17.15;10.50;;;;;;;;;;6180998;23;20061;-92
2023/04/22 07:44:10;;;;;;;15.25;10.48;;;;;;;;;;6162205;23;20008;-93
2023/04/22 07:47:00;;;;;;;;;;;;;;;;;;;;;
2023/04/22 07:49:30;;;;;;;15.40;9.82;;;;;;;;;;6104946;23;20038;-93
2023/04/22 07:52:03;;;;;;;15.48;10.77;;;;;;;;;;6142509;23;20009;-94
2023/04/22 07:54:58;;;;;;;13.63;9.73;;;;;;;;;;6133133;23;20052;-95
2023/04/22 07:57:26;;;;;;;15.07;9.30;;;;;;;;;;6133700;23;20009;-95
2023/04/22 07:59:55;;;;;;;14.40;8.90;;;;;;;;;;6131714;23;20096;-95
2023/04/22 08:02:22;;;;;;;15.27;9.75;;;;;;;;;;6131394;23;20327;-92
2023/04/22 08:04:48;;;;;;;14.00;8.65;;;;;;;;;;6131027;23;20013;-92
2023/04/22 08:07:14;;;;;;;14.45;8.93;;;;;;;;;;6131552;23;20014;-92
2023/04/22 08:09:41;;;;;;;13.88;9.20;;;;;;;;;;6131032;23;20276;-91
2023/04/22 08:12:07;;;;;;;17.42;9.35;;;;;;;;;;6133173;23;20013;-92
2023/04/22 08:14:59;;;;;;;15.48;9.13;;;;;;;;;;6131529;23;20010;-93
2023/04/22 08:17:27;;;;;;;15.77;9.25;;;;;;;;;;6161525;23;20009;-92
2023/04/22 08:20:27;;;;;;;12.80;9.85;;;;;;;;;;6196865;23;20016;-94
2023/04/22 08:22:59;;;;;;;14.88;8.60;;;;;;;;;;6213449;23;20328;-92
2023/04/22 08:25:26;;;;;;;11.70;8.55;;;;;;;;;;6192026;23;20008;-93
2023/04/22 08:27:55;;;;;;;14.38;8.85;;;;;;;;;;6191884;23;20084;-93
2023/04/22 08:30:24;;;;;;;12.18;8.57;;;;;;;;;;6193145;23;20021;-93
2023/04/22 08:36:26;;;;;;;;;;;;;;;;;;;;;
2023/04/22 08:38:58;;;;;;;17.98;8.95;;;;;;;;;;6161258;23;20048;-93
2023/04/22 08:47:37;;;;;;;;;;;;;;;;;;;;;
2023/04/22 08:50:37;;;;;;;;;;;;;;;;;;;;;
2023/04/22 08:53:39;;;;;;;17.65;8.20;;;;;;;;;;6230473;22;20020;-94
2023/04/22 08:56:32;;;;;;;12.25;7.80;;;;;;;;;;6228913;23;20019;-94
2023/04/22 08:59:33;;;;;;;13.93;8.63;;;;;;;;;;6197003;23;20009;-92
2023/04/22 09:02:59;;;;;;;;;;;;;;;;;;;;;
2023/04/22 09:08:26;;;;;;;11.27;7.40;;;;;;;;;;6142339;23;20045;-93
2023/04/22 09:17:40;;;;;;;13.02;7.45;;;;;;;;;;6055320;23;20040;-93
2023/04/22 09:23:43;;;;;;;10.48;7.53;;;;;;;;;;6048196;23;20011;-93
2023/04/22 09:26:40;;;;;;;;;;;;;;;;;;;;;
2023/04/22 09:29:17;;;;;;;12.45;7.55;;;;;;;;;;6100780;23;20010;-93
2023/04/22 09:31:50;;;;;;;9.57;6.82;;;;;;;;;;6084235;23;20008;-93
2023/04/22 09:34:30;;;;;;;11.00;7.03;;;;;;;;;;6136758;23;20000;-94
2023/04/22 09:36:56;;;;;;;13.45;7.68;;;;;;;;;;6202771;23;20011;-95
2023/04/22 09:39:50;;;;;;;9.55;7.38;;;;;;;;;;6204296;23;20004;-94
2023/04/22 09:42:17;;;;;;;10.63;7.57;;;;;;;;;;6205871;23;20005;-94
2023/04/22 09:45:07;;;;;;;;;;;;;;;;;;;;;
2023/04/22 09:48:10;;;;;;;9.48;7.28;;;;;;;;;;6232746;23;20028;-95
2023/04/22 09:51:22;;;;;;;;;;;;;;;;;;;;;
2023/04/22 09:54:33;;;;;;;11.77;7.45;;;;;;;;;;6219257;22;20062;-95
2023/04/22 09:57:16;;;;;;;10.75;6.90;;;;;;;;;;6108641;23;20025;-94
2023/04/22 09:59:52;;;;;;;11.55;7.38;;;;;;;;;;6086987;23;20089;-94
2023/04/22 10:02:28;;;;;;;10.77;7.57;;;;;;;;;;6188792;23;20034;-94
2023/04/22 10:04:57;;;;;;;11.35;7.78;;;;;;;;;;6202532;23;20120;-95
2023/04/22 10:07:32;;;;;;;12.27;7.95;;;;;;;;;;6202377;23;20013;-94
2023/04/22 10:13:24;;;;;;;10.52;7.57;;;;;;;;;;6139395;23;20025;-94
2023/04/22 10:15:53;;;;;;;13.10;7.90;;;;;;;;;;6142793;23;20162;-93
2023/04/22 10:19:20;;;;;;;;;;;;;;;;;;;;;
2023/04/22 10:25:28;;;;;;;11.18;6.88;;;;;;;;;;6226011;23;20016;-94
2023/04/22 10:31:51;;;;;;;10.52;6.80;;;;;;;;;;6169717;23;20013;-94
2023/04/22 10:37:44;;;;;;;;;;;;;;;;;;;;;
2023/04/22 10:43:47;;;;;;;9.60;6.75;;;;;;;;;;6101741;23;20054;-94
2023/04/22 10:46:47;;;;;;;12.63;6.85;;;;;;;;;;6128249;23;20008;-94
2023/04/22 10:53:04;;;;;;;11.10;6.70;;;;;;;;;;6142084;23;20022;-93
2023/04/22 10:56:03;;;;;;;8.32;6.13;;;;;;;;;;6019615;23;20003;-93
2023/04/22 11:02:40;;;;;;;;;;;;;;;;;;;;;
2023/04/22 11:12:23;;;;;;;9.45;6.60;;;;;;;;;;5942588;24;20024;-93
2023/04/22 11:24:27;;;;;;;8.05;6.35;;;;;;;;;;5823650;24;20031;-93
2023/04/22 11:27:27;;;;;;;;;;;;;;;;;;;;;
2023/04/22 11:33:30;;;;;;;9.27;5.43;;;;;;;;;;5783151;24;20048;-93
2023/04/22 11:36:18;;;;;;;7.47;4.82;;;;;;;;;;5782102;24;20037;-93
2023/04/22 11:38:54;;;;;;;7.53;5.57;;;;;;;;;;5823371;24;20046;-93
2023/04/22 11:41:39;;;;;;;7.78;6.00;;;;;;;;;;5877189;24;20040;-92
2023/04/22 11:46:59;;;;;;;6.03;5.07;;;;;;;;;;6013052;23;20049;-92
2023/04/22 11:49:31;;;;;;;6.72;5.00;;;;;;;;;;6136976;23;20197;-93
2023/04/22 11:51:58;;;;;;;8.55;5.57;;;;;;;;;;6092135;23;20326;-93
2023/04/22 11:54:40;;;;;;;9.45;5.28;;;;;;;;;;6118682;23;20049;-93
2023/04/22 11:57:10;;;;;;;7.57;5.22;;;;;;;;;;6085188;23;20029;-92
2023/04/22 11:59:36;;;;;;;7.28;5.50;;;;;;;;;;6087867;23;20013;-94
2023/04/22 12:02:06;;;;;;;7.35;4.97;;;;;;;;;;6081346;23;20006;-95
2023/04/22 12:04:43;;;;;;;6.07;5.15;;;;;;;;;;6139057;23;20069;-94
2023/04/22 12:07:17;;;;;;;7.00;5.13;;;;;;;;;;6143117;23;20016;-94
2023/04/22 12:09:49;;;;;;;4.68;4.18;;;;;;;;;;6138020;23;20009;-93
2023/04/22 12:15:18;;;;;;;7.50;4.15;;;;;;;;;;6125653;23;20009;-94
2023/04/22 12:17:45;;;;;;;7.57;4.80;;;;;;;;;;6140896;23;20020;-95
2023/04/22 12:20:27;;;;;;;7.75;4.68;;;;;;;;;;6120531;23;20120;-94
2023/04/22 12:22:53;;;;;;;9.05;4.65;;;;;;;;;;6144256;23;19997;-93
2023/04/22 12:25:20;;;;;;;11.07;5.00;;;;;;;;;;6137045;23;20040;-94
2023/04/22 12:28:13;;;;;;;6.70;5.95;;;;;;;;;;6138840;23;20025;-93
2023/04/22 12:30:49;;;;;;;8.35;5.32;;;;;;;;;;6071750;23;20006;-93
2023/04/22 12:33:15;;;;;;;11.55;5.70;;;;;;;;;;6072449;23;20022;-96
2023/04/22 12:35:45;;;;;;;6.20;5.18;;;;;;;;;;6111169;23;20021;-93
2023/04/22 12:38:12;;;;;;;10.25;5.50;;;;;;;;;;6162095;23;20018;-95
2023/04/22 12:40:38;;;;;;;9.80;5.50;;;;;;;;;;6166827;23;20009;-96
2023/04/22 12:43:13;;;;;;;16.58;6.28;;;;;;;;;;6171497;23;20078;-96
2023/04/22 12:45:43;;;;;;;9.23;6.30;;;;;;;;;;6163294;23;20009;-95
2023/04/22 12:48:21;;;;;;;8.82;5.40;;;;;;;;;;6163010;23;20079;-96
2023/04/22 12:50:59;;;;;;;6.82;5.13;;;;;;;;;;6175751;23;20033;-96
2023/04/22 12:59:31;;;;;;;7.57;4.97;;;;;;;;;;6141633;23;20113;-93
2023/04/22 13:02:18;;;;;;;6.88;5.25;;;;;;;;;;6228705;23;20003;-95
2023/04/22 13:04:47;;;;;;;11.13;5.95;;;;;;;;;;6204819;23;20015;-96
2023/04/22 13:07:29;;;;;;;7.50;5.65;;;;;;;;;;6231015;23;20008;-92
2023/04/22 13:10:33;;;;;;;;;;;;;;;;;;;;;
2023/04/22 13:13:05;;;;;;;14.10;6.45;;;;;;;;;;6251642;23;20027;-91
2023/04/22 13:18:39;;;;;;;7.57;5.15;;;;;;;;;;6255806;23;20042;-92
2023/04/22 13:24:14;;;;;;;14.75;6.63;;;;;;;;;;6159394;23;20041;-90
2023/04/22 13:26:58;;;;;;;22.77;7.85;;;;;;;;;;6123070;23;20068;-93
2023/04/22 13:34:52;;;;;;;11.75;7.22;;;;;;;;;;6271062;22;20039;-95
2023/04/22 13:37:27;;;;;;;;;;;;;;;;;;6227820;22;20540;-94
2023/04/22 13:40:10;;;;;;;12.13;8.35;;;;;;;;;;6255505;22;19914;-96
2023/04/22 13:42:49;;;;;;;11.50;6.57;;;;;;;;;;6267610;22;20000;-96
2023/04/22 13:45:24;;;;;;;8.13;5.95;;;;;;;;;;6240929;22;20008;-96
2023/04/22 13:47:53;;;;;;;11.48;5.32;;;;;;;;;;6257016;22;20019;-96
2023/04/22 13:50:19;;;;;;;8.27;5.63;;;;;;;;;;6255122;22;20022;-96
2023/04/22 13:52:49;;;;;;;9.40;6.22;;;;;;;;;;6254398;22;20019;-96
2023/04/22 13:55:18;;;;;;;20.52;6.85;;;;;;;;;;6272048;22;20064;-96
2023/04/22 13:58:05;;;;;;;9.32;6.53;;;;;;;;;;6254731;22;20012;-96
2023/04/22 14:00:38;;;;;;;18.42;8.23;;;;;;;;;;6228863;22;20032;-91
2023/04/22 14:03:04;;;;;;;9.82;6.95;;;;;;;;;;6209372;23;20036;-89
2023/04/22 14:05:31;;;;;;;9.77;7.63;;;;;;;;;;6209410;23;20008;-90
2023/04/22 14:07:57;;;;;;;11.98;7.18;;;;;;;;;;6212963;23;20105;-88
2023/04/22 14:10:24;;;;;;;9.48;6.63;;;;;;;;;;6188600;23;20017;-89
2023/04/22 14:12:50;;;;;;;13.15;7.10;;;;;;;;;;6212289;23;20462;-88
2023/04/22 14:15:17;;;;;;;13.98;8.20;;;;;;;;;;6211959;23;20019;-89
2023/04/22 15:47:03;;;;;;;26.17;14.95;;;;;;;;;;6270190;22;20124;-93
2023/04/22 15:49:30;;;;;;;27.30;14.35;;;;;;;;;;6274351;22;20045;-93
2023/04/22 15:52:00;;;;;;;26.02;15.75;;;;;;;;;;6249518;22;20008;-94
2023/04/22 15:54:33;;;;;;;32.25;15.27;;;;;;;;;;6274837;22;20003;-93
2023/04/22 15:57:00;;;;;;;24.70;14.60;;;;;;;;;;6271932;22;20008;-93
2023/04/22 15:59:27;;;;;;;32.20;16.92;;;;;;;;;;6249205;22;20008;-93
2023/04/22 16:01:53;;;;;;;36.85;16.98;;;;;;;;;;6248193;22;20008;-93
2023/04/22 16:04:23;;;;;;;30.65;16.77;;;;;;;;;;6247914;22;20323;-90
2023/04/22 16:06:49;;;;;;;34.40;19.17;;;;;;;;;;6247827;22;20508;-93
2023/04/22 16:09:15;;;;;;;33.05;18.58;;;;;;;;;;6248314;22;20030;-91
2023/04/22 16:11:42;;;;;;;39.75;20.05;;;;;;;;;;6248765;22;20138;-90
2023/04/22 16:14:10;;;;;;;38.30;21.83;;;;;;;;;;6273752;22;20071;-91
2023/04/22 16:16:38;;;;;;;42.80;21.95;;;;;;;;;;6247706;22;20027;-92
2023/04/22 16:19:05;;;;;;;41.25;23.63;;;;;;;;;;6274395;22;20185;-92
2023/04/22 16:21:31;;;;;;;45.90;21.63;;;;;;;;;;6248018;22;20015;-91
2023/04/22 16:24:00;;;;;;;37.65;21.73;;;;;;;;;;6274059;22;20000;-93
2023/04/22 16:26:37;;;;;;;46.90;25.80;;;;;;;;;;6249981;22;20027;-92
2023/04/22 16:29:05;;;;;;;45.83;26.25;;;;;;;;;;6274542;22;20008;-92
2023/04/22 16:31:34;;;;;;;45.92;26.65;;;;;;;;;;6272479;22;20053;-92
2023/04/22 16:34:01;;;;;;;52.58;27.75;;;;;;;;;;6272753;22;20070;-91
2023/04/22 16:36:27;;;;;;;51.50;28.45;;;;;;;;;;6246311;22;20022;-91
2023/04/22 16:38:54;;;;;;;55.67;28.40;;;;;;;;;;6249216;22;20011;-91
2023/04/22 16:41:23;;;;;;;51.63;28.67;;;;;;;;;;6248780;22;20090;-91
2023/04/22 16:43:51;;;;;;;48.17;28.25;;;;;;;;;;6246634;22;20012;-91
2023/04/22 16:46:18;;;;;;;60.10;31.13;;;;;;;;;;6248181;22;20330;-91
2023/04/22 16:48:47;;;;;;;56.65;31.27;;;;;;;;;;6248261;22;20023;-91
2023/04/22 16:51:13;;;;;;;59.47;31.30;;;;;;;;;;6247359;22;20011;-92
2023/04/22 16:53:40;;;;;;;51.47;30.40;;;;;;;;;;6246835;22;20046;-92
2023/04/22 16:56:06;;;;;;;58.92;33.72;;;;;;;;;;6273327;22;20333;-92
2023/04/22 16:58:32;;;;;;;53.83;31.42;;;;;;;;;;6247682;22;20354;-92
2023/04/22 17:01:01;;;;;;;53.42;32.55;;;;;;;;;;6247158;22;20031;-92
2023/04/22 17:03:27;;;;;;;63.95;33.47;;;;;;;;;;6248337;22;20397;-92
2023/04/22 17:05:53;;;;;;;61.30;32.15;;;;;;;;;;6246529;22;20000;-91
2023/04/22 17:08:19;;;;;;;64.15;33.35;;;;;;;;;;6273982;22;20012;-92
2023/04/22 17:10:46;;;;;;;66.50;34.75;;;;;;;;;;6244835;22;20015;-93
2023/04/22 17:13:16;;;;;;;62.78;32.75;;;;;;;;;;6247220;22;20015;-91
2023/04/22 17:15:42;;;;;;;59.78;31.27;;;;;;;;;;6270639;22;20354;-91
2023/04/22 17:18:09;;;;;;;60.25;34.00;;;;;;;;;;6246868;22;20019;-91
2023/04/22 17:20:36;;;;;;;62.60;35.35;;;;;;;;;;6247451;22;20111;-92
2023/04/22 17:23:03;;;;;;;66.78;35.70;;;;;;;;;;6273670;22;20004;-91
2023/04/22 17:25:32;;;;;;;62.20;35.17;;;;;;;;;;6272444;22;20004;-91
2023/04/22 17:28:05;;;;;;;58.70;35.45;;;;;;;;;;6245908;22;20476;-91
2023/04/22 17:30:31;;;;;;;63.15;36.53;;;;;;;;;;6246689;22;20232;-92
2023/04/22 17:32:57;;;;;;;63.25;35.65;;;;;;;;;;6272158;22;20019;-92
2023/04/22 17:35:23;;;;;;;53.88;31.73;;;;;;;;;;6272098;22;20027;-93
2023/04/22 17:37:52;;;;;;;45.85;26.92;;;;;;;;;;6247494;22;20008;-91
2023/04/22 17:40:19;;;;;;;44.38;25.73;;;;;;;;;;6247087;22;20020;-91
2023/04/22 17:42:49;;;;;;;48.95;27.85;;;;;;;;;;6272017;22;20086;-91
2023/04/22 17:45:15;;;;;;;47.20;28.17;;;;;;;;;;6246348;22;20015;-92
2023/04/22 17:47:46;;;;;;;46.65;28.20;;;;;;;;;;6268854;22;20493;-92
2023/04/22 17:50:12;;;;;;;44.42;23.90;;;;;;;;;;6247612;22;20071;-92
2023/04/22 17:52:41;;;;;;;40.78;23.33;;;;;;;;;;6268725;22;20039;-92
2023/04/22 17:55:08;;;;;;;39.92;19.83;;;;;;;;;;6273331;22;20008;-92
2023/04/22 17:57:35;;;;;;;25.92;13.50;;;;;;;;;;6243730;22;20326;-92
2023/04/22 18:00:04;;;;;;;18.77;9.75;;;;;;;;;;6247628;22;20003;-92
2023/04/22 18:02:31;;;;;;;18.38;8.88;;;;;;;;;;6248063;22;20483;-91
2023/04/22 18:04:57;;;;;;;19.67;8.68;;;;;;;;;;6250024;22;20222;-91
2023/04/22 18:07:24;;;;;;;31.23;9.00;;;;;;;;;;6247112;22;20011;-92
2023/04/22 18:09:50;;;;;;;27.85;10.48;;;;;;;;;;6250610;22;20436;-93
2023/04/22 18:12:16;;;;;;;25.33;10.07;;;;;;;;;;6249092;22;20413;-91
2023/04/22 18:14:43;;;;;;;23.42;10.75;;;;;;;;;;6274924;22;20011;-92
2023/04/22 18:17:12;;;;;;;29.85;11.07;;;;;;;;;;6276699;22;20003;-92
2023/04/22 18:19:38;;;;;;;29.52;12.15;;;;;;;;;;6250485;22;20011;-92
2023/04/22 18:22:04;;;;;;;33.97;12.55;;;;;;;;;;6250511;22;20003;-92
2023/04/22 18:24:36;;;;;;;26.75;12.73;;;;;;;;;;6275317;22;20008;-92
2023/04/22 18:27:02;;;;;;;41.92;16.00;;;;;;;;;;6249348;22;20513;-92